logo
Rechercher aéroport 
image banner adimage banner adimage banner ad
image banner ad

8CL4 - A G Spanos Companies Hq

Situé à Stockton, United States

ICAO - 8CL4, IATA -

Données fournies par Airmate  

Information générale

Coordonnées: N38°2'52" W121°22'13"
Élévation : 96 feet MSL.
 
Voir autres Aéroports à California

Données opérationnelles

Special qualification required
Heure actuelle UTC:
Heure actuelle locale:
Météo à : KSCK - Stockton Metropolitan ( 21 km )
METAR: KSCK 261455Z 35005KT 10SM CLR 18/13 A2994 RMK AO2 SLP139 T01780133 53011
TAF: KSCK 261120Z 2612/2712 31008KT P6SM SKC
Voir NOTAMs / SUP AIP / TFR affectant cet aéroport [VIEW]
Fréquences de communication: [VIEW]

Pistes:

Coordonnées de l'aéroport

Adresse: Stockton United States

Vue satellite de 8CL4